createdAt,value
2023-04-26T00:00:49.387Z,0.40
2023-04-26T00:04:21.678Z,1.00
2023-04-26T00:07:54.315Z,0.63
2023-04-26T00:11:26.464Z,0.60
2023-04-26T00:14:58.638Z,0.50
2023-04-26T00:18:31.596Z,0.67
2023-04-26T00:22:03.710Z,0.50
2023-04-26T00:25:35.814Z,0.65
2023-04-26T00:29:07.805Z,0.75
2023-04-26T00:32:39.716Z,0.70
2023-04-26T00:36:13.139Z,0.60
2023-04-26T00:39:45.526Z,0.73
2023-04-26T00:43:17.248Z,0.50
2023-04-26T00:46:52.043Z,0.50
2023-04-26T00:50:24.491Z,0.45
2023-04-26T00:53:57.385Z,0.40
2023-04-26T00:57:29.320Z,0.30
2023-04-26T01:01:01.335Z,0.75
2023-04-26T01:04:33.626Z,0.40
2023-04-26T01:08:06.860Z,0.43
2023-04-26T01:11:38.703Z,0.52
2023-04-26T01:15:11.952Z,0.30
2023-04-26T01:18:44.214Z,0.20
2023-04-26T01:22:16.496Z,0.30
2023-04-26T01:25:49.246Z,0.20
2023-04-26T01:29:22.764Z,0.70
2023-04-26T01:32:55.535Z,0.57
2023-04-26T01:36:27.218Z,0.50
2023-04-26T01:39:59.316Z,0.80
2023-04-26T01:43:31.423Z,0.50
2023-04-26T01:47:03.564Z,0.50
2023-04-26T01:50:35.536Z,0.50
2023-04-26T01:54:07.901Z,0.40
2023-04-26T01:57:39.914Z,0.40
2023-04-26T02:01:12.049Z,0.93
2023-04-26T02:04:44.534Z,0.93
2023-04-26T02:08:16.249Z,0.32
2023-04-26T02:11:48.361Z,0.40
2023-04-26T02:15:21.712Z,0.57
2023-04-26T02:18:54.031Z,0.20
2023-04-26T02:22:26.569Z,0.30
2023-04-26T02:25:58.274Z,0.50
2023-04-26T02:29:43.582Z,0.20
2023-04-26T02:33:16.098Z,0.47
2023-04-26T02:36:49.163Z,0.50
2023-04-26T02:40:22.648Z,0.30
2023-04-26T02:43:54.890Z,0.32
2023-04-26T02:47:26.716Z,0.13
2023-04-26T02:50:58.963Z,0.35
2023-04-26T02:54:30.808Z,0.50
2023-04-26T02:58:02.838Z,0.63
2023-04-26T03:01:34.864Z,2.05
2023-04-26T03:05:06.976Z,1.27
2023-04-26T03:08:38.955Z,0.73
2023-04-26T03:12:11.446Z,1.00
2023-04-26T03:15:46.824Z,0.57
2023-04-26T03:19:18.619Z,0.30
2023-04-26T03:22:51.001Z,0.20
2023-04-26T03:26:23.177Z,0.40
2023-04-26T03:29:55.549Z,0.40
2023-04-26T03:33:27.605Z,0.20
2023-04-26T03:36:59.515Z,0.20
2023-04-26T03:40:31.895Z,0.20
2023-04-26T03:44:03.789Z,0.25
2023-04-26T03:47:35.900Z,0.40
2023-04-26T03:51:07.910Z,0.20
2023-04-26T03:54:39.919Z,0.30
2023-04-26T03:58:12.569Z,0.30
2023-04-26T04:01:44.940Z,0.40
2023-04-26T04:05:17.195Z,0.70
2023-04-26T04:08:49.215Z,0.20
2023-04-26T04:12:23.004Z,0.43
2023-04-26T04:15:55.051Z,0.50
2023-04-26T04:19:28.028Z,0.20
2023-04-26T04:23:02.291Z,0.28
2023-04-26T04:26:34.518Z,0.23
2023-04-26T04:30:10.157Z,0.75
2023-04-26T04:33:45.134Z,0.50
2023-04-26T04:37:18.342Z,0.20
2023-04-26T04:40:53.469Z,0.30
2023-04-26T04:44:27.164Z,0.10
2023-04-26T04:47:59.315Z,0.25
2023-04-26T04:51:30.923Z,0.43
2023-04-26T04:55:04.268Z,0.52
2023-04-26T04:58:36.207Z,0.50
2023-04-26T05:02:08.226Z,0.33
2023-04-26T05:05:40.044Z,0.47
2023-04-26T05:09:12.275Z,0.10
2023-04-26T05:12:44.035Z,0.50
2023-04-26T05:16:16.403Z,0.23
2023-04-26T05:19:48.350Z,0.40
2023-04-26T05:23:20.657Z,0.20
2023-04-26T05:26:52.704Z,0.60
2023-04-26T05:30:24.711Z,0.73
2023-04-26T05:33:56.765Z,0.45
2023-04-26T05:37:28.797Z,0.60
2023-04-26T05:41:00.947Z,0.20
2023-04-26T05:44:32.711Z,0.35
2023-04-26T05:48:04.929Z,0.68
2023-04-26T05:51:38.416Z,0.77
2023-04-26T05:55:10.534Z,1.00
2023-04-26T05:58:42.534Z,0.40
2023-04-26T06:02:14.789Z,0.30
2023-04-26T06:05:47.237Z,0.60
2023-04-26T06:09:20.209Z,0.40
2023-04-26T06:12:52.313Z,0.50
2023-04-26T06:16:24.069Z,0.43
2023-04-26T06:19:56.273Z,0.90
2023-04-26T06:23:28.117Z,0.82
2023-04-26T06:27:00.254Z,0.40
2023-04-26T06:30:32.025Z,0.60
2023-04-26T06:34:04.770Z,0.20
2023-04-26T06:37:37.900Z,0.23
2023-04-26T06:41:10.208Z,0.55
2023-04-26T06:44:42.170Z,0.52
2023-04-26T06:48:14.405Z,0.40
2023-04-26T06:51:46.160Z,1.25
2023-04-26T06:55:18.957Z,0.40
2023-04-26T06:59:05.073Z,0.65
2023-04-26T07:02:37.323Z,0.37
2023-04-26T07:06:10.654Z,0.85
2023-04-26T07:09:42.716Z,0.20
2023-04-26T07:13:14.950Z,0.60
2023-04-26T07:16:47.403Z,0.43
2023-04-26T07:20:22.927Z,0.70
2023-04-26T07:23:58.310Z,0.90
2023-04-26T07:27:31.742Z,0.43
2023-04-26T07:31:04.864Z,0.68
2023-04-26T07:34:37.764Z,0.52
2023-04-26T07:38:10.456Z,0.90
2023-04-26T07:41:43.916Z,0.57
2023-04-26T07:45:16.976Z,0.93
2023-04-26T07:48:49.031Z,0.50
2023-04-26T07:52:21.369Z,0.50
2023-04-26T07:55:53.206Z,0.70
2023-04-26T07:59:25.434Z,0.65
2023-04-26T08:02:57.657Z,0.33
2023-04-26T08:06:30.057Z,0.50
2023-04-26T08:10:02.238Z,0.50
2023-04-26T08:13:34.381Z,0.73
2023-04-26T08:17:08.748Z,0.60
2023-04-26T08:20:41.390Z,0.40
2023-04-26T08:24:13.741Z,0.40
2023-04-26T08:27:45.872Z,0.40
2023-04-26T08:31:17.956Z,0.60
2023-04-26T08:34:49.759Z,0.85
2023-04-26T08:38:24.782Z,0.70
2023-04-26T08:42:04.371Z,0.70
2023-04-26T08:45:41.172Z,0.30
2023-04-26T08:49:40.670Z,0.90
2023-04-26T08:53:17.925Z,1.13
2023-04-26T08:56:50.501Z,0.68
2023-04-26T09:00:23.327Z,0.40
2023-04-26T09:03:57.014Z,0.40
2023-04-26T09:07:33.832Z,0.85
2023-04-26T09:11:05.973Z,0.77
2023-04-26T09:14:41.815Z,0.65
2023-04-26T09:18:21.720Z,0.30
2023-04-26T09:21:53.929Z,0.50
2023-04-26T09:25:30.132Z,0.60
2023-04-26T09:29:16.986Z,0.50
2023-04-26T09:32:52.540Z,0.52
2023-04-26T09:36:24.611Z,0.30
2023-04-26T09:39:56.784Z,0.50
2023-04-26T09:43:37.354Z,0.50
2023-04-26T09:47:12.522Z,0.80
2023-04-26T09:50:46.261Z,0.47
2023-04-26T09:54:24.248Z,0.53
2023-04-26T09:57:58.300Z,0.45
2023-04-26T10:01:30.698Z,0.50
2023-04-26T10:05:03.276Z,0.67
2023-04-26T10:08:36.470Z,0.70
2023-04-26T10:12:12.631Z,0.50
2023-04-26T10:15:45.988Z,0.70
2023-04-26T10:19:19.653Z,0.57
2023-04-26T10:22:53.778Z,0.70
2023-04-26T10:26:48.273Z,0.90
2023-04-26T10:30:23.200Z,0.50
2023-04-26T10:34:21.286Z,0.40
2023-04-26T10:38:02.312Z,1.25
2023-04-26T10:41:36.550Z,0.60
2023-04-26T10:45:41.505Z,0.60
2023-04-26T10:49:15.375Z,0.73
2023-04-26T10:53:05.320Z,0.47
2023-04-26T10:56:40.855Z,0.65
2023-04-26T11:00:31.937Z,0.87
2023-04-26T11:04:09.082Z,0.80
2023-04-26T11:07:41.419Z,0.43
2023-04-26T11:11:13.736Z,0.70
2023-04-26T11:14:46.289Z,0.87
2023-04-26T11:18:21.097Z,0.53
2023-04-26T11:21:54.543Z,0.50
2023-04-26T11:25:28.485Z,0.95
2023-04-26T11:29:01.437Z,0.83
2023-04-26T11:32:33.899Z,0.30
2023-04-26T11:36:06.197Z,0.40
2023-04-26T11:39:38.368Z,0.75
2023-04-26T11:43:11.702Z,0.67
2023-04-26T11:46:44.081Z,0.85
2023-04-26T11:50:16.344Z,0.60
2023-04-26T11:53:48.186Z,0.50
2023-04-26T11:57:20.734Z,0.70
2023-04-26T12:00:59.668Z,0.70
2023-04-26T12:04:31.944Z,1.20
2023-04-26T12:08:04.118Z,0.63
2023-04-26T12:11:36.391Z,0.60
2023-04-26T12:15:13.844Z,0.70
2023-04-26T12:18:52.149Z,1.10
2023-04-26T12:22:23.993Z,1.10
2023-04-26T12:26:02.070Z,0.50
2023-04-26T12:29:34.578Z,0.63
2023-04-26T12:33:16.555Z,0.63
2023-04-26T12:36:49.097Z,1.00
2023-04-26T12:40:21.176Z,0.50
2023-04-26T12:43:52.894Z,0.40
2023-04-26T12:47:25.212Z,1.03
2023-04-26T12:50:57.438Z,0.60
2023-04-26T12:54:29.509Z,0.60
2023-04-26T12:58:01.510Z,0.50
2023-04-26T13:01:33.369Z,0.70
2023-04-26T13:05:06.762Z,0.70
2023-04-26T13:08:38.529Z,0.47
2023-04-26T13:12:10.523Z,0.40
2023-04-26T13:15:42.957Z,0.30
2023-04-26T13:19:15.148Z,0.60
2023-04-26T13:22:47.632Z,0.20
2023-04-26T13:26:19.410Z,0.20
2023-04-26T13:29:52.521Z,0.60
2023-04-26T13:33:24.514Z,0.60
2023-04-26T13:36:58.066Z,0.73
2023-04-26T13:40:30.141Z,0.38
2023-04-26T13:44:04.376Z,0.60
2023-04-26T13:47:36.957Z,0.38
2023-04-26T13:51:09.102Z,0.30
2023-04-26T13:54:41.189Z,0.50
2023-04-26T13:58:13.513Z,0.50
2023-04-26T14:01:46.419Z,0.60
2023-04-26T14:05:18.892Z,0.40
2023-04-26T14:08:52.193Z,0.37
2023-04-26T14:12:24.150Z,0.77
2023-04-26T14:15:56.311Z,0.50
2023-04-26T14:19:28.469Z,0.20
2023-04-26T14:23:00.641Z,0.70
2023-04-26T14:26:33.503Z,0.63
2023-04-26T14:30:06.514Z,0.98
2023-04-26T14:33:38.488Z,0.47
2023-04-26T14:37:10.753Z,0.90
2023-04-26T14:40:42.882Z,0.83
2023-04-26T14:44:15.066Z,0.65
2023-04-26T14:47:47.576Z,0.60
2023-04-26T14:51:19.671Z,0.50
2023-04-26T14:54:52.180Z,0.50
2023-04-26T14:58:26.484Z,0.60
2023-04-26T15:01:58.587Z,0.50
2023-04-26T15:05:34.590Z,0.60
2023-04-26T15:09:09.062Z,0.70
2023-04-26T15:12:41.767Z,0.70
2023-04-26T15:16:13.580Z,0.50
2023-04-26T15:19:45.626Z,0.50
2023-04-26T15:23:17.500Z,0.43
2023-04-26T15:26:49.706Z,0.60
2023-04-26T15:30:21.795Z,0.50
2023-04-26T15:33:56.452Z,0.80
2023-04-26T15:37:28.199Z,0.53
2023-04-26T15:41:00.411Z,0.85
2023-04-26T15:44:32.669Z,0.80
2023-04-26T15:48:05.506Z,0.43
2023-04-26T15:51:37.718Z,0.67
2023-04-26T15:55:10.003Z,0.60
2023-04-26T15:58:45.776Z,0.90
2023-04-26T16:02:17.661Z,0.80
2023-04-26T16:05:49.852Z,0.77
2023-04-26T16:09:29.446Z,1.00
2023-04-26T16:13:01.496Z,0.60
2023-04-26T16:16:33.641Z,1.17
2023-04-26T16:20:07.159Z,0.60
2023-04-26T16:23:42.210Z,0.75
2023-04-26T16:27:14.329Z,0.70
2023-04-26T16:30:46.474Z,1.03
2023-04-26T16:34:18.452Z,0.85
2023-04-26T16:37:50.646Z,0.80
2023-04-26T16:41:23.243Z,0.88
2023-04-26T16:44:55.338Z,1.00
2023-04-26T16:48:28.020Z,0.80
2023-04-26T16:52:03.839Z,0.43
2023-04-26T16:55:36.056Z,0.50
2023-04-26T16:59:07.983Z,0.50
2023-04-26T17:02:41.039Z,0.88
2023-04-26T17:06:12.990Z,0.47
2023-04-26T17:09:45.025Z,0.97
2023-04-26T17:13:16.875Z,1.05
2023-04-26T17:16:48.951Z,0.80
2023-04-26T17:20:21.114Z,0.83
2023-04-26T17:23:53.180Z,1.03
2023-04-26T17:27:26.868Z,1.42
2023-04-26T17:30:58.864Z,1.05
2023-04-26T17:34:31.045Z,1.10
2023-04-26T17:38:03.240Z,0.60
2023-04-26T17:41:35.365Z,1.17
2023-04-26T17:45:07.534Z,1.30
2023-04-26T17:48:39.789Z,0.93
2023-04-26T17:52:12.090Z,0.93
2023-04-26T17:55:43.873Z,0.52
2023-04-26T17:59:16.094Z,0.40
2023-04-26T18:02:48.813Z,1.02
2023-04-26T18:06:22.649Z,1.25
2023-04-26T18:09:54.719Z,0.90
2023-04-26T18:13:26.925Z,1.08
2023-04-26T18:16:58.912Z,1.60
2023-04-26T18:20:31.189Z,1.65
2023-04-26T18:24:04.674Z,1.00
2023-04-26T18:27:36.722Z,0.88
2023-04-26T18:31:09.006Z,1.23
2023-04-26T18:34:41.614Z,1.30
2023-04-26T18:38:13.344Z,1.30
2023-04-26T18:41:45.473Z,0.93
2023-04-26T18:45:17.414Z,1.80
2023-04-26T18:48:49.504Z,1.35
2023-04-26T18:52:21.672Z,1.40
2023-04-26T18:55:53.615Z,1.20
2023-04-26T18:59:25.699Z,1.50
2023-04-26T19:02:57.928Z,1.40
2023-04-26T19:06:29.676Z,1.75
2023-04-26T19:10:04.288Z,1.50
2023-04-26T19:13:37.524Z,1.20
2023-04-26T19:17:12.513Z,1.38
2023-04-26T19:20:45.016Z,1.20
2023-04-26T19:24:19.148Z,2.77
2023-04-26T19:27:52.298Z,1.80
2023-04-26T19:31:28.300Z,1.80
2023-04-26T19:35:06.421Z,2.63
2023-04-26T19:38:38.582Z,2.58
2023-04-26T19:42:12.544Z,2.30
2023-04-26T19:45:56.101Z,1.70
2023-04-26T19:49:54.039Z,1.85
2023-04-26T19:53:29.365Z,1.85
2023-04-26T19:57:18.059Z,1.70
2023-04-26T20:00:51.512Z,2.00
2023-04-26T20:04:27.711Z,1.83
2023-04-26T20:07:59.765Z,2.10
2023-04-26T20:11:40.656Z,2.23
2023-04-26T20:15:21.797Z,3.40
2023-04-26T20:18:53.902Z,3.47
2023-04-26T20:22:25.953Z,4.03
2023-04-26T20:25:58.350Z,3.00
2023-04-26T20:29:31.136Z,2.90
2023-04-26T20:33:03.064Z,2.28
2023-04-26T20:36:36.760Z,3.10
2023-04-26T20:40:09.792Z,3.10
2023-04-26T20:43:41.886Z,3.08
2023-04-26T20:47:13.939Z,3.10
2023-04-26T20:50:46.119Z,3.28
2023-04-26T20:54:18.122Z,3.05
2023-04-26T20:57:50.068Z,2.20
2023-04-26T21:01:22.090Z,2.25
2023-04-26T21:04:54.508Z,1.83
2023-04-26T21:08:26.390Z,1.88
2023-04-26T21:11:58.597Z,2.13
2023-04-26T21:15:30.624Z,2.42
2023-04-26T21:19:02.600Z,2.10
2023-04-26T21:22:34.763Z,2.77
2023-04-26T21:26:06.666Z,2.03
2023-04-26T21:29:38.908Z,2.30
2023-04-26T21:33:12.481Z,1.43
2023-04-26T21:36:44.715Z,1.70
2023-04-26T21:40:17.032Z,2.08
2023-04-26T21:43:50.152Z,2.50
2023-04-26T21:47:22.256Z,1.87
2023-04-26T21:50:54.161Z,2.08
2023-04-26T21:54:26.114Z,1.98
2023-04-26T21:57:58.368Z,1.87
2023-04-26T22:01:30.262Z,2.47
2023-04-26T22:05:02.341Z,2.67
2023-04-26T22:08:34.744Z,2.67
2023-04-26T22:12:07.120Z,2.00
2023-04-26T22:41:31.154Z,2.47
2023-04-26T22:45:03.693Z,1.90
2023-04-26T22:48:35.564Z,2.40
2023-04-26T22:52:17.011Z,2.95
2023-04-26T22:55:56.286Z,2.30
2023-04-26T22:59:28.341Z,2.63
2023-04-26T23:03:00.274Z,2.28
2023-04-26T23:06:32.503Z,2.57
2023-04-26T23:10:05.065Z,2.50
2023-04-26T23:13:37.921Z,2.50
2023-04-26T23:17:12.156Z,3.03
2023-04-26T23:20:43.999Z,2.97
2023-04-26T23:24:16.103Z,2.83
2023-04-26T23:27:48.007Z,2.47
2023-04-26T23:31:20.594Z,2.90
2023-04-26T23:34:53.485Z,2.38
2023-04-26T23:38:25.993Z,2.35
2023-04-26T23:41:58.469Z,2.23
